sensor_id;sensor_type;location;lat;lon;timestamp;P1;durP1;ratioP1;P2;durP2;ratioP2
41887;SDS011;63122;52.424;13.458;2023-11-22T01:14:11;10.00;;;5.67;;
41887;SDS011;63122;52.424;13.458;2023-11-22T01:16:07;10.63;;;5.77;;
41887;SDS011;63122;52.424;13.458;2023-11-22T01:18:00;7.23;;;5.13;;
41887;SDS011;63122;52.424;13.458;2023-11-22T01:19:56;10.43;;;5.33;;
41887;SDS011;63122;52.424;13.458;2023-11-22T01:21:52;8.17;;;5.17;;
41887;SDS011;63122;52.424;13.458;2023-11-22T01:23:48;9.03;;;5.43;;
41887;SDS011;63122;52.424;13.458;2023-11-22T01:25:43;12.77;;;5.57;;
41887;SDS011;63122;52.424;13.458;2023-11-22T01:27:39;8.80;;;5.20;;
41887;SDS011;63122;52.424;13.458;2023-11-22T01:29:37;8.77;;;5.37;;
41887;SDS011;63122;52.424;13.458;2023-11-22T01:31:34;9.30;;;5.47;;
41887;SDS011;63122;52.424;13.458;2023-11-22T01:33:29;9.90;;;5.40;;
41887;SDS011;63122;52.424;13.458;2023-11-22T01:35:24;10.90;;;5.33;;
41887;SDS011;63122;52.424;13.458;2023-11-22T01:37:21;11.20;;;5.90;;
41887;SDS011;63122;52.424;13.458;2023-11-22T01:39:17;8.13;;;5.20;;
41887;SDS011;63122;52.424;13.458;2023-11-22T01:41:10;9.80;;;5.83;;
41887;SDS011;63122;52.424;13.458;2023-11-22T01:43:07;12.17;;;6.27;;
41887;SDS011;63122;52.424;13.458;2023-11-22T01:45:07;11.07;;;5.70;;
41887;SDS011;63122;52.424;13.458;2023-11-22T01:47:04;13.13;;;7.00;;
41887;SDS011;63122;52.424;13.458;2023-11-22T01:48:57;11.83;;;5.63;;
41887;SDS011;63122;52.424;13.458;2023-11-22T01:50:53;11.30;;;5.90;;
41887;SDS011;63122;52.424;13.458;2023-11-22T01:52:46;9.07;;;5.43;;
41887;SDS011;63122;52.424;13.458;2023-11-22T01:54:42;10.50;;;5.63;;
41887;SDS011;63122;52.424;13.458;2023-11-22T01:56:36;13.87;;;5.80;;
41887;SDS011;63122;52.424;13.458;2023-11-22T01:58:34;8.37;;;5.57;;
41887;SDS011;63122;52.424;13.458;2023-11-22T02:48:45;12.17;;;6.27;;
41887;SDS011;63122;52.424;13.458;2023-11-22T02:50:41;11.13;;;6.40;;
41887;SDS011;63122;52.424;13.458;2023-11-22T02:52:37;10.30;;;6.27;;
41887;SDS011;63122;52.424;13.458;2023-11-22T02:54:32;14.47;;;7.30;;
41887;SDS011;63122;52.424;13.458;2023-11-22T02:56:25;9.00;;;5.80;;
41887;SDS011;63122;52.424;13.458;2023-11-22T02:58:20;8.93;;;5.20;;
41887;SDS011;63122;52.424;13.458;2023-11-22T03:00:13;7.87;;;4.70;;
41887;SDS011;63122;52.424;13.458;2023-11-22T03:02:10;8.13;;;4.90;;
41887;SDS011;63122;52.424;13.458;2023-11-22T03:04:10;9.40;;;4.83;;
41887;SDS011;63122;52.424;13.458;2023-11-22T03:06:06;9.43;;;4.97;;
41887;SDS011;63122;52.424;13.458;2023-11-22T03:07:59;8.50;;;4.40;;
41887;SDS011;63122;52.424;13.458;2023-11-22T03:09:54;9.30;;;5.10;;
41887;SDS011;63122;52.424;13.458;2023-11-22T03:11:48;10.00;;;5.00;;
41887;SDS011;63122;52.424;13.458;2023-11-22T03:13:44;7.80;;;4.70;;
41887;SDS011;63122;52.424;13.458;2023-11-22T03:15:41;10.03;;;4.60;;
41887;SDS011;63122;52.424;13.458;2023-11-22T03:17:34;8.77;;;4.80;;
41887;SDS011;63122;52.424;13.458;2023-11-22T03:19:33;7.93;;;4.63;;
41887;SDS011;63122;52.424;13.458;2023-11-22T03:21:26;7.77;;;4.50;;
41887;SDS011;63122;52.424;13.458;2023-11-22T03:23:22;8.47;;;4.90;;
41887;SDS011;63122;52.424;13.458;2023-11-22T03:25:18;6.77;;;4.43;;
41887;SDS011;63122;52.424;13.458;2023-11-22T03:27:11;7.57;;;4.50;;
41887;SDS011;63122;52.424;13.458;2023-11-22T03:29:06;8.10;;;4.63;;
41887;SDS011;63122;52.424;13.458;2023-11-22T03:31:01;7.80;;;4.70;;
41887;SDS011;63122;52.424;13.458;2023-11-22T03:33:00;8.00;;;4.60;;
41887;SDS011;63122;52.424;13.458;2023-11-22T03:34:59;8.70;;;4.70;;
41887;SDS011;63122;52.424;13.458;2023-11-22T03:36:52;8.13;;;4.50;;
41887;SDS011;63122;52.424;13.458;2023-11-22T03:38:47;6.93;;;4.13;;
41887;SDS011;63122;52.424;13.458;2023-11-22T03:40:42;7.07;;;4.30;;
41887;SDS011;63122;52.424;13.458;2023-11-22T03:42:38;9.73;;;5.10;;
41887;SDS011;63122;52.424;13.458;2023-11-22T03:44:30;8.30;;;3.87;;
41887;SDS011;63122;52.424;13.458;2023-11-22T03:46:26;8.10;;;5.07;;
41887;SDS011;63122;52.424;13.458;2023-11-22T03:48:22;9.73;;;4.70;;
41887;SDS011;63122;52.424;13.458;2023-11-22T03:50:21;9.67;;;4.53;;
41887;SDS011;63122;52.424;13.458;2023-11-22T03:52:17;7.30;;;4.17;;
41887;SDS011;63122;52.424;13.458;2023-11-22T03:54:10;7.77;;;4.50;;
41887;SDS011;63122;52.424;13.458;2023-11-22T03:56:08;7.27;;;4.47;;
41887;SDS011;63122;52.424;13.458;2023-11-22T03:58:01;7.60;;;4.33;;
41887;SDS011;63122;52.424;13.458;2023-11-22T03:59:56;8.53;;;4.57;;
41887;SDS011;63122;52.424;13.458;2023-11-22T04:01:50;7.83;;;4.60;;
41887;SDS011;63122;52.424;13.458;2023-11-22T04:03:45;7.97;;;4.23;;
41887;SDS011;63122;52.424;13.458;2023-11-22T04:05:45;9.43;;;4.90;;
41887;SDS011;63122;52.424;13.458;2023-11-22T04:07:40;8.10;;;4.60;;
41887;SDS011;63122;52.424;13.458;2023-11-22T04:09:36;7.30;;;4.57;;
41887;SDS011;63122;52.424;13.458;2023-11-22T04:11:30;9.10;;;4.77;;
41887;SDS011;63122;52.424;13.458;2023-11-22T04:13:26;7.97;;;4.70;;
41887;SDS011;63122;52.424;13.458;2023-11-22T04:15:18;8.33;;;4.80;;
41887;SDS011;63122;52.424;13.458;2023-11-22T04:17:14;8.37;;;4.73;;
41887;SDS011;63122;52.424;13.458;2023-11-22T04:19:10;11.97;;;5.07;;
41887;SDS011;63122;52.424;13.458;2023-11-22T04:21:09;9.60;;;5.10;;
41887;SDS011;63122;52.424;13.458;2023-11-22T04:23:04;8.27;;;4.67;;
41887;SDS011;63122;52.424;13.458;2023-11-22T04:25:03;8.00;;;4.67;;
41887;SDS011;63122;52.424;13.458;2023-11-22T04:26:56;11.43;;;5.00;;
41887;SDS011;63122;52.424;13.458;2023-11-22T04:28:52;9.17;;;4.83;;
41887;SDS011;63122;52.424;13.458;2023-11-22T04:30:44;8.57;;;5.00;;
41887;SDS011;63122;52.424;13.458;2023-11-22T04:32:40;10.07;;;5.70;;
41887;SDS011;63122;52.424;13.458;2023-11-22T04:34:36;9.17;;;5.40;;
41887;SDS011;63122;52.424;13.458;2023-11-22T04:36:34;7.60;;;5.17;;
41887;SDS011;63122;52.424;13.458;2023-11-22T04:38:30;8.60;;;4.97;;
41887;SDS011;63122;52.424;13.458;2023-11-22T04:40:26;9.57;;;5.87;;
41887;SDS011;63122;52.424;13.458;2023-11-22T04:42:19;10.07;;;5.70;;
41887;SDS011;63122;52.424;13.458;2023-11-22T04:44:15;9.23;;;5.63;;
41887;SDS011;63122;52.424;13.458;2023-11-22T04:46:11;10.83;;;5.60;;
41887;SDS011;63122;52.424;13.458;2023-11-22T04:48:04;9.30;;;5.43;;
41887;SDS011;63122;52.424;13.458;2023-11-22T04:50:00;10.00;;;5.77;;
41887;SDS011;63122;52.424;13.458;2023-11-22T04:51:56;8.40;;;5.07;;
41887;SDS011;63122;52.424;13.458;2023-11-22T04:53:51;9.20;;;5.50;;
41887;SDS011;63122;52.424;13.458;2023-11-22T04:55:47;10.03;;;5.93;;
41887;SDS011;63122;52.424;13.458;2023-11-22T04:57:42;10.90;;;6.23;;
41887;SDS011;63122;52.424;13.458;2023-11-22T04:59:37;9.93;;;6.37;;
41887;SDS011;63122;52.424;13.458;2023-11-22T05:01:33;9.53;;;6.00;;
41887;SDS011;63122;52.424;13.458;2023-11-22T05:03:29;10.77;;;5.77;;
41887;SDS011;63122;52.424;13.458;2023-11-22T05:05:24;14.10;;;7.13;;
41887;SDS011;63122;52.424;13.458;2023-11-22T05:07:20;11.70;;;6.20;;
41887;SDS011;63122;52.424;13.458;2023-11-22T05:09:15;10.43;;;5.70;;
41887;SDS011;63122;52.424;13.458;2023-11-22T05:11:10;12.00;;;6.30;;
41887;SDS011;63122;52.424;13.458;2023-11-22T05:13:07;10.90;;;6.23;;
41887;SDS011;63122;52.424;13.458;2023-11-22T05:15:00;10.77;;;6.07;;
41887;SDS011;63122;52.424;13.458;2023-11-22T05:16:56;13.57;;;6.10;;
41887;SDS011;63122;52.424;13.458;2023-11-22T05:18:52;12.33;;;6.67;;
41887;SDS011;63122;52.424;13.458;2023-11-22T05:20:47;30.50;;;14.70;;
41887;SDS011;63122;52.424;13.458;2023-11-22T05:22:43;11.87;;;6.03;;
41887;SDS011;63122;52.424;13.458;2023-11-22T05:24:38;11.27;;;6.47;;
41887;SDS011;63122;52.424;13.458;2023-11-22T05:26:33;10.23;;;6.03;;
41887;SDS011;63122;52.424;13.458;2023-11-22T05:28:30;13.33;;;6.43;;
41887;SDS011;63122;52.424;13.458;2023-11-22T05:30:26;11.20;;;6.10;;
41887;SDS011;63122;52.424;13.458;2023-11-22T05:32:18;11.30;;;6.60;;
41887;SDS011;63122;52.424;13.458;2023-11-22T05:34:14;10.00;;;5.97;;
41887;SDS011;63122;52.424;13.458;2023-11-22T05:36:09;10.77;;;6.07;;
41887;SDS011;63122;52.424;13.458;2023-11-22T05:38:06;14.47;;;5.73;;
41887;SDS011;63122;52.424;13.458;2023-11-22T05:40:02;11.87;;;6.00;;
41887;SDS011;63122;52.424;13.458;2023-11-22T05:41:58;14.23;;;6.73;;
41887;SDS011;63122;52.424;13.458;2023-11-22T05:43:58;11.23;;;6.47;;
41887;SDS011;63122;52.424;13.458;2023-11-22T05:48:13;12.87;;;6.63;;
41887;SDS011;63122;52.424;13.458;2023-11-22T05:50:12;12.90;;;6.50;;
41887;SDS011;63122;52.424;13.458;2023-11-22T05:52:44;11.83;;;6.50;;
41887;SDS011;63122;52.424;13.458;2023-11-22T05:55:59;11.83;;;6.40;;
41887;SDS011;63122;52.424;13.458;2023-11-22T06:03:53;11.50;;;6.37;;
41887;SDS011;63122;52.424;13.458;2023-11-22T06:31:19;14.93;;;6.23;;
41887;SDS011;63122;52.424;13.458;2023-11-22T06:33:19;10.53;;;6.00;;
41887;SDS011;63122;52.424;13.458;2023-11-22T06:35:41;11.73;;;6.57;;
41887;SDS011;63122;52.424;13.458;2023-11-22T06:37:36;11.30;;;6.10;;
41887;SDS011;63122;52.424;13.458;2023-11-22T06:39:32;13.60;;;6.47;;
41887;SDS011;63122;52.424;13.458;2023-11-22T06:41:30;15.23;;;6.40;;
41887;SDS011;63122;52.424;13.458;2023-11-22T06:44:06;12.60;;;6.90;;
41887;SDS011;63122;52.424;13.458;2023-11-22T06:50:48;14.57;;;7.43;;
41887;SDS011;63122;52.424;13.458;2023-11-22T06:53:27;14.87;;;7.47;;
41887;SDS011;63122;52.424;13.458;2023-11-22T06:56:13;14.30;;;7.40;;
41887;SDS011;63122;52.424;13.458;2023-11-22T07:08:30;17.00;;;8.17;;
41887;SDS011;63122;52.424;13.458;2023-11-22T07:16:08;14.33;;;7.87;;
41887;SDS011;63122;52.424;13.458;2023-11-22T07:21:34;13.30;;;7.37;;
41887;SDS011;63122;52.424;13.458;2023-11-22T07:24:12;14.60;;;7.43;;
41887;SDS011;63122;52.424;13.458;2023-11-22T07:26:08;13.13;;;7.03;;
41887;SDS011;63122;52.424;13.458;2023-11-22T07:28:06;11.10;;;7.23;;
41887;SDS011;63122;52.424;13.458;2023-11-22T07:30:01;12.33;;;7.20;;
41887;SDS011;63122;52.424;13.458;2023-11-22T07:31:57;14.97;;;6.83;;
41887;SDS011;63122;52.424;13.458;2023-11-22T07:33:53;13.80;;;7.00;;
41887;SDS011;63122;52.424;13.458;2023-11-22T07:35:48;15.03;;;8.17;;
41887;SDS011;63122;52.424;13.458;2023-11-22T07:37:44;11.63;;;6.90;;
41887;SDS011;63122;52.424;13.458;2023-11-22T07:41:50;13.83;;;6.77;;
41887;SDS011;63122;52.424;13.458;2023-11-22T07:43:52;17.07;;;6.90;;
41887;SDS011;63122;52.424;13.458;2023-11-22T07:45:46;12.40;;;6.60;;
41887;SDS011;63122;52.424;13.458;2023-11-22T07:47:43;13.73;;;6.67;;
41887;SDS011;63122;52.424;13.458;2023-11-22T07:49:43;19.17;;;8.70;;
41887;SDS011;63122;52.424;13.458;2023-11-22T07:51:40;21.23;;;7.10;;
41887;SDS011;63122;52.424;13.458;2023-11-22T07:53:37;14.57;;;7.33;;
41887;SDS011;63122;52.424;13.458;2023-11-22T07:55:35;16.77;;;7.20;;
41887;SDS011;63122;52.424;13.458;2023-11-22T07:57:31;11.73;;;6.70;;
41887;SDS011;63122;52.424;13.458;2023-11-22T07:59:26;15.17;;;6.63;;
41887;SDS011;63122;52.424;13.458;2023-11-22T08:01:22;13.73;;;6.50;;
41887;SDS011;63122;52.424;13.458;2023-11-22T08:03:14;11.23;;;6.73;;
41887;SDS011;63122;52.424;13.458;2023-11-22T08:05:18;12.07;;;7.03;;
41887;SDS011;63122;52.424;13.458;2023-11-22T08:07:15;13.10;;;6.93;;
41887;SDS011;63122;52.424;13.458;2023-11-22T08:09:09;13.27;;;6.77;;
41887;SDS011;63122;52.424;13.458;2023-11-22T08:11:14;18.60;;;6.87;;
41887;SDS011;63122;52.424;13.458;2023-11-22T08:13:10;13.73;;;6.77;;
41887;SDS011;63122;52.424;13.458;2023-11-22T08:15:06;14.23;;;6.50;;
41887;SDS011;63122;52.424;13.458;2023-11-22T08:17:01;13.50;;;6.73;;
41887;SDS011;63122;52.424;13.458;2023-11-22T08:18:58;11.20;;;6.43;;
41887;SDS011;63122;52.424;13.458;2023-11-22T08:20:54;12.33;;;6.57;;
41887;SDS011;63122;52.424;13.458;2023-11-22T08:22:47;12.87;;;6.70;;
41887;SDS011;63122;52.424;13.458;2023-11-22T08:24:43;11.77;;;6.43;;
41887;SDS011;63122;52.424;13.458;2023-11-22T08:26:42;11.47;;;6.03;;
41887;SDS011;63122;52.424;13.458;2023-11-22T08:28:35;12.10;;;5.97;;
41887;SDS011;63122;52.424;13.458;2023-11-22T08:30:31;12.53;;;6.03;;
41887;SDS011;63122;52.424;13.458;2023-11-22T08:32:28;10.70;;;5.70;;
41887;SDS011;63122;52.424;13.458;2023-11-22T08:34:23;9.27;;;5.57;;
41887;SDS011;63122;52.424;13.458;2023-11-22T08:36:18;8.77;;;5.33;;
41887;SDS011;63122;52.424;13.458;2023-11-22T08:38:11;8.50;;;5.27;;
41887;SDS011;63122;52.424;13.458;2023-11-22T08:40:08;11.13;;;5.87;;
41887;SDS011;63122;52.424;13.458;2023-11-22T08:42:09;8.53;;;5.23;;
41887;SDS011;63122;52.424;13.458;2023-11-22T08:44:08;11.67;;;5.93;;
41887;SDS011;63122;52.424;13.458;2023-11-22T08:46:01;11.90;;;5.93;;
41887;SDS011;63122;52.424;13.458;2023-11-22T08:48:06;11.13;;;5.80;;
41887;SDS011;63122;52.424;13.458;2023-11-22T08:49:59;9.20;;;5.50;;
41887;SDS011;63122;52.424;13.458;2023-11-22T08:51:56;8.70;;;5.97;;
41887;SDS011;63122;52.424;13.458;2023-11-22T08:53:51;8.97;;;5.67;;
41887;SDS011;63122;52.424;13.458;2023-11-22T08:55:47;13.33;;;7.83;;
41887;SDS011;63122;52.424;13.458;2023-11-22T08:57:46;9.80;;;6.07;;
41887;SDS011;63122;52.424;13.458;2023-11-22T08:59:43;11.23;;;5.93;;
41887;SDS011;63122;52.424;13.458;2023-11-22T09:01:39;12.37;;;5.80;;
41887;SDS011;63122;52.424;13.458;2023-11-22T09:03:37;11.57;;;5.90;;
41887;SDS011;63122;52.424;13.458;2023-11-22T09:05:33;18.40;;;5.80;;
41887;SDS011;63122;52.424;13.458;2023-11-22T09:07:26;10.43;;;5.97;;
41887;SDS011;63122;52.424;13.458;2023-11-22T09:09:21;11.23;;;5.93;;
41887;SDS011;63122;52.424;13.458;2023-11-22T09:11:23;11.83;;;6.23;;
41887;SDS011;63122;52.424;13.458;2023-11-22T09:13:21;12.57;;;6.00;;
41887;SDS011;63122;52.424;13.458;2023-11-22T09:15:14;8.63;;;5.43;;
41887;SDS011;63122;52.424;13.458;2023-11-22T09:17:15;10.33;;;6.00;;
41887;SDS011;63122;52.424;13.458;2023-11-22T09:19:13;11.23;;;6.17;;
41887;SDS011;63122;52.424;13.458;2023-11-22T09:21:09;10.00;;;5.30;;
41887;SDS011;63122;52.424;13.458;2023-11-22T09:23:08;12.57;;;6.40;;
41887;SDS011;63122;52.424;13.458;2023-11-22T09:25:06;9.40;;;5.60;;
41887;SDS011;63122;52.424;13.458;2023-11-22T09:27:03;10.87;;;6.10;;
41887;SDS011;63122;52.424;13.458;2023-11-22T09:29:05;8.93;;;5.50;;
41887;SDS011;63122;52.424;13.458;2023-11-22T09:31:01;9.83;;;5.50;;
41887;SDS011;63122;52.424;13.458;2023-11-22T09:32:58;10.53;;;5.87;;
41887;SDS011;63122;52.424;13.458;2023-11-22T09:34:51;9.87;;;6.07;;
41887;SDS011;63122;52.424;13.458;2023-11-22T09:36:50;10.23;;;6.10;;
41887;SDS011;63122;52.424;13.458;2023-11-22T09:38:43;9.13;;;5.57;;
41887;SDS011;63122;52.424;13.458;2023-11-22T09:40:40;11.33;;;5.90;;
41887;SDS011;63122;52.424;13.458;2023-11-22T09:42:33;12.40;;;6.43;;
41887;SDS011;63122;52.424;13.458;2023-11-22T09:44:31;11.30;;;5.80;;
41887;SDS011;63122;52.424;13.458;2023-11-22T09:49:22;10.20;;;5.63;;
41887;SDS011;63122;52.424;13.458;2023-11-22T09:57:40;11.30;;;6.20;;
41887;SDS011;63122;52.424;13.458;2023-11-22T09:59:38;9.33;;;5.90;;
41887;SDS011;63122;52.424;13.458;2023-11-22T10:01:36;8.87;;;5.67;;
41887;SDS011;63122;52.424;13.458;2023-11-22T10:03:29;10.63;;;6.10;;
41887;SDS011;63122;52.424;13.458;2023-11-22T10:05:25;10.70;;;6.20;;
41887;SDS011;63122;52.424;13.458;2023-11-22T10:07:25;19.87;;;11.70;;
41887;SDS011;63122;52.424;13.458;2023-11-22T10:09:17;9.53;;;6.10;;
41887;SDS011;63122;52.424;13.458;2023-11-22T10:11:16;8.33;;;5.33;;
41887;SDS011;63122;52.424;13.458;2023-11-22T10:13:13;9.57;;;5.30;;
41887;SDS011;63122;52.424;13.458;2023-11-22T10:15:14;9.87;;;6.10;;
41887;SDS011;63122;52.424;13.458;2023-11-22T10:17:11;13.23;;;5.77;;
41887;SDS011;63122;52.424;13.458;2023-11-22T10:19:04;10.27;;;6.10;;
41887;SDS011;63122;52.424;13.458;2023-11-22T10:21:02;7.70;;;4.90;;
41887;SDS011;63122;52.424;13.458;2023-11-22T10:22:55;10.40;;;5.77;;
41887;SDS011;63122;52.424;13.458;2023-11-22T10:24:58;11.40;;;5.90;;
41887;SDS011;63122;52.424;13.458;2023-11-22T10:26:53;12.50;;;6.30;;
41887;SDS011;63122;52.424;13.458;2023-11-22T10:28:51;10.07;;;5.67;;
41887;SDS011;63122;52.424;13.458;2023-11-22T10:30:48;9.80;;;5.90;;
41887;SDS011;63122;52.424;13.458;2023-11-22T10:32:44;12.87;;;5.93;;
41887;SDS011;63122;52.424;13.458;2023-11-22T10:34:40;11.77;;;5.83;;
41887;SDS011;63122;52.424;13.458;2023-11-22T10:36:35;8.70;;;5.23;;
41887;SDS011;63122;52.424;13.458;2023-11-22T10:38:34;10.77;;;5.40;;
41887;SDS011;63122;52.424;13.458;2023-11-22T10:40:30;8.37;;;5.43;;
41887;SDS011;63122;52.424;13.458;2023-11-22T10:42:29;11.13;;;5.30;;
41887;SDS011;63122;52.424;13.458;2023-11-22T10:44:26;9.03;;;5.60;;
41887;SDS011;63122;52.424;13.458;2023-11-22T10:46:30;9.33;;;5.63;;
41887;SDS011;63122;52.424;13.458;2023-11-22T10:48:29;8.13;;;5.37;;
41887;SDS011;63122;52.424;13.458;2023-11-22T10:50:29;8.70;;;5.70;;
41887;SDS011;63122;52.424;13.458;2023-11-22T10:52:26;10.70;;;5.47;;
41887;SDS011;63122;52.424;13.458;2023-11-22T10:54:24;10.53;;;4.93;;
41887;SDS011;63122;52.424;13.458;2023-11-22T10:56:25;6.77;;;4.57;;
41887;SDS011;63122;52.424;13.458;2023-11-22T10:58:30;9.00;;;5.37;;
41887;SDS011;63122;52.424;13.458;2023-11-22T11:00:30;9.03;;;5.27;;
41887;SDS011;63122;52.424;13.458;2023-11-22T11:02:35;10.23;;;5.53;;
41887;SDS011;63122;52.424;13.458;2023-11-22T11:04:42;9.37;;;5.50;;
41887;SDS011;63122;52.424;13.458;2023-11-22T11:06:51;17.03;;;5.83;;
41887;SDS011;63122;52.424;13.458;2023-11-22T11:08:51;11.83;;;5.27;;
41887;SDS011;63122;52.424;13.458;2023-11-22T11:10:49;9.13;;;5.43;;
41887;SDS011;63122;52.424;13.458;2023-11-22T11:12:49;11.00;;;5.67;;
41887;SDS011;63122;52.424;13.458;2023-11-22T11:14:45;10.13;;;6.30;;
41887;SDS011;63122;52.424;13.458;2023-11-22T11:16:44;9.87;;;5.63;;
41887;SDS011;63122;52.424;13.458;2023-11-22T11:18:54;9.00;;;5.80;;
41887;SDS011;63122;52.424;13.458;2023-11-22T11:20:48;9.87;;;6.13;;
41887;SDS011;63122;52.424;13.458;2023-11-22T11:22:44;12.73;;;6.37;;
41887;SDS011;63122;52.424;13.458;2023-11-22T11:24:41;8.33;;;5.53;;
41887;SDS011;63122;52.424;13.458;2023-11-22T11:26:39;8.77;;;5.60;;
41887;SDS011;63122;52.424;13.458;2023-11-22T11:28:41;10.83;;;5.87;;
41887;SDS011;63122;52.424;13.458;2023-11-22T11:30:44;9.77;;;6.63;;
41887;SDS011;63122;52.424;13.458;2023-11-22T11:32:41;10.87;;;6.23;;
41887;SDS011;63122;52.424;13.458;2023-11-22T11:34:49;8.87;;;5.93;;
41887;SDS011;63122;52.424;13.458;2023-11-22T11:36:43;9.40;;;5.67;;
41887;SDS011;63122;52.424;13.458;2023-11-22T11:38:48;9.73;;;6.13;;
41887;SDS011;63122;52.424;13.458;2023-11-22T11:40:45;12.53;;;5.47;;
41887;SDS011;63122;52.424;13.458;2023-11-22T11:42:43;9.27;;;6.43;;
41887;SDS011;63122;52.424;13.458;2023-11-22T11:44:50;8.90;;;5.70;;
41887;SDS011;63122;52.424;13.458;2023-11-22T11:46:51;9.27;;;5.77;;
41887;SDS011;63122;52.424;13.458;2023-11-22T11:48:47;11.30;;;5.60;;
41887;SDS011;63122;52.424;13.458;2023-11-22T11:50:52;9.63;;;5.60;;
41887;SDS011;63122;52.424;13.458;2023-11-22T11:52:46;8.07;;;5.10;;
41887;SDS011;63122;52.424;13.458;2023-11-22T11:54:45;8.63;;;5.20;;
41887;SDS011;63122;52.424;13.458;2023-11-22T11:56:43;8.83;;;5.57;;
41887;SDS011;63122;52.424;13.458;2023-11-22T11:58:43;8.80;;;5.57;;
41887;SDS011;63122;52.424;13.458;2023-11-22T12:00:41;8.17;;;5.63;;
41887;SDS011;63122;52.424;13.458;2023-11-22T12:02:37;8.90;;;5.17;;
41887;SDS011;63122;52.424;13.458;2023-11-22T12:04:30;9.30;;;5.60;;
41887;SDS011;63122;52.424;13.458;2023-11-22T12:06:31;8.87;;;5.80;;
41887;SDS011;63122;52.424;13.458;2023-11-22T12:08:29;9.77;;;5.67;;
41887;SDS011;63122;52.424;13.458;2023-11-22T12:10:26;19.83;;;9.13;;
41887;SDS011;63122;52.424;13.458;2023-11-22T12:12:21;18.03;;;5.33;;
41887;SDS011;63122;52.424;13.458;2023-11-22T12:14:17;9.03;;;5.53;;
41887;SDS011;63122;52.424;13.458;2023-11-22T12:16:11;7.60;;;4.87;;
41887;SDS011;63122;52.424;13.458;2023-11-22T12:18:11;9.60;;;4.80;;
41887;SDS011;63122;52.424;13.458;2023-11-22T12:20:11;10.47;;;4.93;;
41887;SDS011;63122;52.424;13.458;2023-11-22T12:22:13;8.13;;;4.97;;
41887;SDS011;63122;52.424;13.458;2023-11-22T12:24:13;6.17;;;4.60;;
41887;SDS011;63122;52.424;13.458;2023-11-22T12:28:48;8.27;;;4.73;;
41887;SDS011;63122;52.424;13.458;2023-11-22T12:31:08;7.00;;;4.73;;
41887;SDS011;63122;52.424;13.458;2023-11-22T12:33:10;7.50;;;4.70;;
41887;SDS011;63122;52.424;13.458;2023-11-22T12:35:10;7.87;;;5.10;;
41887;SDS011;63122;52.424;13.458;2023-11-22T12:37:06;8.30;;;5.30;;
41887;SDS011;63122;52.424;13.458;2023-11-22T12:39:05;5.97;;;4.07;;
41887;SDS011;63122;52.424;13.458;2023-11-22T12:41:01;9.33;;;4.83;;
41887;SDS011;63122;52.424;13.458;2023-11-22T12:43:01;9.77;;;5.03;;
41887;SDS011;63122;52.424;13.458;2023-11-22T12:44:58;6.70;;;4.33;;
41887;SDS011;63122;52.424;13.458;2023-11-22T12:46:52;9.07;;;4.50;;
41887;SDS011;63122;52.424;13.458;2023-11-22T12:48:56;7.40;;;4.80;;
41887;SDS011;63122;52.424;13.458;2023-11-22T12:50:58;8.13;;;5.00;;
41887;SDS011;63122;52.424;13.458;2023-11-22T12:53:07;8.07;;;4.73;;
41887;SDS011;63122;52.424;13.458;2023-11-22T12:55:04;8.03;;;5.17;;
41887;SDS011;63122;52.424;13.458;2023-11-22T12:57:09;6.80;;;4.20;;
41887;SDS011;63122;52.424;13.458;2023-11-22T12:59:16;7.60;;;4.73;;
41887;SDS011;63122;52.424;13.458;2023-11-22T13:01:12;7.93;;;5.40;;
41887;SDS011;63122;52.424;13.458;2023-11-22T13:03:27;11.10;;;6.13;;
41887;SDS011;63122;52.424;13.458;2023-11-22T13:05:24;7.90;;;5.70;;
41887;SDS011;63122;52.424;13.458;2023-11-22T13:07:21;7.93;;;5.40;;
41887;SDS011;63122;52.424;13.458;2023-11-22T13:09:33;8.10;;;4.53;;
41887;SDS011;63122;52.424;13.458;2023-11-22T13:11:33;5.73;;;4.17;;
41887;SDS011;63122;52.424;13.458;2023-11-22T13:13:29;7.60;;;4.57;;
41887;SDS011;63122;52.424;13.458;2023-11-22T13:15:27;10.00;;;4.77;;
41887;SDS011;63122;52.424;13.458;2023-11-22T13:17:26;9.13;;;5.60;;
41887;SDS011;63122;52.424;13.458;2023-11-22T13:19:21;9.13;;;5.50;;
41887;SDS011;63122;52.424;13.458;2023-11-22T13:21:24;9.17;;;5.20;;
41887;SDS011;63122;52.424;13.458;2023-11-22T13:23:19;7.17;;;5.10;;
41887;SDS011;63122;52.424;13.458;2023-11-22T13:25:13;8.13;;;5.17;;
41887;SDS011;63122;52.424;13.458;2023-11-22T13:27:12;6.90;;;4.33;;
41887;SDS011;63122;52.424;13.458;2023-11-22T13:29:08;8.93;;;5.53;;
41887;SDS011;63122;52.424;13.458;2023-11-22T13:31:04;8.43;;;4.70;;
41887;SDS011;63122;52.424;13.458;2023-11-22T13:33:00;10.40;;;6.00;;
41887;SDS011;63122;52.424;13.458;2023-11-22T13:34:55;8.60;;;5.70;;
41887;SDS011;63122;52.424;13.458;2023-11-22T13:36:49;7.63;;;4.50;;
41887;SDS011;63122;52.424;13.458;2023-11-22T13:38:45;12.00;;;7.57;;
41887;SDS011;63122;52.424;13.458;2023-11-22T13:40:40;14.90;;;6.33;;
41887;SDS011;63122;52.424;13.458;2023-11-22T13:42:40;15.50;;;9.33;;
41887;SDS011;63122;52.424;13.458;2023-11-22T13:44:39;15.87;;;11.13;;
41887;SDS011;63122;52.424;13.458;2023-11-22T13:46:36;10.17;;;6.87;;
41887;SDS011;63122;52.424;13.458;2023-11-22T13:48:36;11.47;;;7.23;;
41887;SDS011;63122;52.424;13.458;2023-11-22T13:50:31;7.33;;;4.70;;
41887;SDS011;63122;52.424;13.458;2023-11-22T13:52:25;14.97;;;9.60;;
41887;SDS011;63122;52.424;13.458;2023-11-22T13:54:21;11.80;;;7.53;;
41887;SDS011;63122;52.424;13.458;2023-11-22T13:56:16;16.87;;;6.40;;
41887;SDS011;63122;52.424;13.458;2023-11-22T13:58:15;7.87;;;4.80;;
41887;SDS011;63122;52.424;13.458;2023-11-22T14:00:08;6.90;;;4.53;;
41887;SDS011;63122;52.424;13.458;2023-11-22T14:02:05;13.33;;;8.73;;
41887;SDS011;63122;52.424;13.458;2023-11-22T14:03:58;20.77;;;14.00;;
41887;SDS011;63122;52.424;13.458;2023-11-22T14:05:55;29.47;;;20.93;;
41887;SDS011;63122;52.424;13.458;2023-11-22T14:07:49;28.70;;;20.60;;
41887;SDS011;63122;52.424;13.458;2023-11-22T14:09:45;12.37;;;8.77;;
41887;SDS011;63122;52.424;13.458;2023-11-22T14:11:38;12.70;;;8.87;;
41887;SDS011;63122;52.424;13.458;2023-11-22T14:13:37;8.80;;;5.27;;
41887;SDS011;63122;52.424;13.458;2023-11-22T14:15:32;9.40;;;4.83;;
41887;SDS011;63122;52.424;13.458;2023-11-22T14:17:30;8.50;;;5.57;;
41887;SDS011;63122;52.424;13.458;2023-11-22T14:19:24;10.70;;;7.07;;
41887;SDS011;63122;52.424;13.458;2023-11-22T14:21:20;9.67;;;6.00;;
41887;SDS011;63122;52.424;13.458;2023-11-22T14:23:16;12.77;;;5.93;;
41887;SDS011;63122;52.424;13.458;2023-11-22T14:25:10;10.20;;;5.77;;
41887;SDS011;63122;52.424;13.458;2023-11-22T14:27:05;9.80;;;5.37;;
41887;SDS011;63122;52.424;13.458;2023-11-22T14:29:01;12.33;;;6.80;;
41887;SDS011;63122;52.424;13.458;2023-11-22T14:30:57;14.23;;;8.93;;
41887;SDS011;63122;52.424;13.458;2023-11-22T14:32:54;14.67;;;9.20;;
41887;SDS011;63122;52.424;13.458;2023-11-22T14:34:53;8.50;;;5.03;;
41887;SDS011;63122;52.424;13.458;2023-11-22T14:36:51;14.93;;;7.53;;
41887;SDS011;63122;52.424;13.458;2023-11-22T14:38:45;11.20;;;5.77;;
41887;SDS011;63122;52.424;13.458;2023-11-22T14:40:49;8.10;;;4.90;;
41887;SDS011;63122;52.424;13.458;2023-11-22T14:42:45;7.50;;;4.90;;
41887;SDS011;63122;52.424;13.458;2023-11-22T14:44:43;9.47;;;4.87;;
41887;SDS011;63122;52.424;13.458;2023-11-22T14:46:41;9.93;;;5.97;;
41887;SDS011;63122;52.424;13.458;2023-11-22T14:48:45;8.00;;;5.00;;